createdAt,value
2017-12-24T00:01:02.594Z,29.90
2017-12-24T00:03:03.692Z,32.47
2017-12-24T00:05:04.732Z,27.53
2017-12-24T00:07:05.771Z,30.87
2017-12-24T00:09:06.785Z,30.40
2017-12-24T00:11:07.779Z,30.10
2017-12-24T00:13:08.840Z,27.20
2017-12-24T00:15:09.815Z,28.50
2017-12-24T00:17:10.883Z,26.20
2017-12-24T00:19:11.901Z,25.60
2017-12-24T00:21:13.133Z,27.30
2017-12-24T00:23:14.127Z,28.00
2017-12-24T00:25:15.860Z,28.20
2017-12-24T00:27:16.862Z,30.13
2017-12-24T00:29:17.858Z,28.87
2017-12-24T00:31:19.603Z,29.17
2017-12-24T00:33:20.591Z,28.10
2017-12-24T00:35:22.450Z,29.50
2017-12-24T00:37:23.475Z,25.33
2017-12-24T00:39:24.455Z,29.90
2017-12-24T00:41:26.170Z,27.93
2017-12-24T00:43:27.203Z,26.60
2017-12-24T00:45:28.196Z,29.60
2017-12-24T00:47:29.203Z,30.07
2017-12-24T00:49:30.210Z,30.60
2017-12-24T00:51:31.281Z,29.37
2017-12-24T00:53:32.267Z,28.53
2017-12-24T00:55:33.331Z,29.20
2017-12-24T00:57:34.587Z,29.80
2017-12-24T00:59:35.579Z,29.53
2017-12-24T01:01:36.666Z,30.80
2017-12-24T01:03:37.667Z,30.07
2017-12-24T01:05:38.659Z,30.00
2017-12-24T01:07:39.635Z,30.53
2017-12-24T01:09:41.370Z,27.83
2017-12-24T01:11:42.451Z,31.70
2017-12-24T01:13:44.237Z,30.33
2017-12-24T01:15:45.287Z,29.97
2017-12-24T01:17:46.282Z,32.57
2017-12-24T01:19:47.335Z,33.00
2017-12-24T01:21:48.360Z,32.40
2017-12-24T01:23:49.416Z,33.80
2017-12-24T01:25:50.408Z,32.00
2017-12-24T01:27:51.369Z,30.43
2017-12-24T01:29:52.392Z,33.37
2017-12-24T01:31:53.386Z,30.40
2017-12-24T01:33:54.464Z,34.03
2017-12-24T01:35:55.472Z,32.90
2017-12-24T01:37:56.455Z,34.30
2017-12-24T01:39:57.424Z,32.80
2017-12-24T01:41:59.159Z,30.50
2017-12-24T01:44:00.135Z,32.03
2017-12-24T01:46:01.121Z,36.10
2017-12-24T01:48:02.080Z,32.30
2017-12-24T01:50:03.121Z,35.10
2017-12-24T01:52:04.209Z,32.77
2017-12-24T01:54:05.990Z,32.93
2017-12-24T01:56:07.715Z,31.30
2017-12-24T01:58:08.735Z,30.30
2017-12-24T02:00:09.726Z,32.00
2017-12-24T02:02:10.751Z,32.47
2017-12-24T02:04:11.737Z,33.93
2017-12-24T02:06:13.519Z,29.10
2017-12-24T02:08:14.506Z,32.20
2017-12-24T02:10:15.477Z,30.80
2017-12-24T02:12:16.451Z,30.27
2017-12-24T02:14:18.171Z,31.90
2017-12-24T02:16:19.188Z,26.60
2017-12-24T02:18:20.238Z,28.77
2017-12-24T02:20:21.350Z,30.60
2017-12-24T02:22:22.345Z,32.40
2017-12-24T02:24:23.401Z,29.27
2017-12-24T02:26:24.406Z,31.77
2017-12-24T02:28:25.427Z,31.40
2017-12-24T02:30:26.444Z,31.23
2017-12-24T02:32:27.487Z,29.67
2017-12-24T02:34:28.512Z,33.40
2017-12-24T02:36:29.518Z,29.30
2017-12-24T02:38:30.656Z,38.40
2017-12-24T02:40:31.656Z,31.63
2017-12-24T02:42:32.631Z,30.80
2017-12-24T02:44:33.693Z,31.83
2017-12-24T02:46:34.686Z,31.43
2017-12-24T02:48:35.701Z,31.20
2017-12-24T02:50:36.723Z,30.00
2017-12-24T02:52:37.719Z,29.70
2017-12-24T02:54:38.710Z,26.93
2017-12-24T02:56:39.732Z,30.33
2017-12-24T02:58:40.743Z,29.70
2017-12-24T03:00:41.787Z,26.60
2017-12-24T03:02:42.763Z,31.07
2017-12-24T03:04:43.781Z,30.83
2017-12-24T03:06:44.771Z,27.93
2017-12-24T03:08:45.761Z,31.77
2017-12-24T03:10:46.748Z,29.00
2017-12-24T03:12:47.838Z,27.80
2017-12-24T03:14:48.839Z,31.03
2017-12-24T03:16:49.830Z,30.40
2017-12-24T03:18:50.991Z,33.50
2017-12-24T03:20:51.998Z,33.77
2017-12-24T03:22:53.015Z,33.33
2017-12-24T03:24:53.981Z,31.40
2017-12-24T03:26:55.077Z,33.43
2017-12-24T03:28:56.124Z,32.43
2017-12-24T03:30:57.089Z,34.57
2017-12-24T03:32:58.876Z,35.43
2017-12-24T03:34:59.924Z,31.97
2017-12-24T03:37:00.902Z,39.50
2017-12-24T03:39:02.058Z,37.13
2017-12-24T03:41:03.050Z,34.30
2017-12-24T03:43:04.182Z,39.07
2017-12-24T03:45:05.221Z,40.57
2017-12-24T03:47:06.280Z,38.27
2017-12-24T03:49:07.251Z,38.00
2017-12-24T03:51:08.268Z,38.97
2017-12-24T03:53:09.295Z,38.60
2017-12-24T03:55:10.393Z,40.90
2017-12-24T03:57:11.394Z,36.93
2017-12-24T03:59:12.723Z,37.43
2017-12-24T04:01:13.735Z,38.87
2017-12-24T04:03:15.469Z,40.33
2017-12-24T04:05:16.526Z,43.20
2017-12-24T04:07:17.510Z,40.00
2017-12-24T04:09:18.537Z,37.73
2017-12-24T04:11:19.677Z,39.83
2017-12-24T04:13:20.699Z,42.67
2017-12-24T04:15:21.712Z,42.27
2017-12-24T04:17:22.774Z,39.67
2017-12-24T04:19:23.788Z,40.40
2017-12-24T04:21:25.544Z,38.30
2017-12-24T04:23:26.560Z,39.27
2017-12-24T04:25:27.558Z,40.27
2017-12-24T04:27:28.535Z,41.43
2017-12-24T04:29:29.650Z,42.97
2017-12-24T04:31:30.611Z,43.23
2017-12-24T04:33:31.586Z,41.43
2017-12-24T04:35:32.577Z,43.50
2017-12-24T04:37:33.587Z,42.80
2017-12-24T04:39:34.621Z,40.23
2017-12-24T04:41:35.652Z,41.07
2017-12-24T04:43:36.677Z,39.87
2017-12-24T04:45:37.638Z,40.20
2017-12-24T04:47:38.621Z,42.33
2017-12-24T04:49:39.610Z,39.60
2017-12-24T04:51:40.643Z,37.80
2017-12-24T04:53:41.620Z,41.90
2017-12-24T04:55:42.678Z,34.87
2017-12-24T04:57:43.723Z,38.13
2017-12-24T04:59:44.775Z,38.53
2017-12-24T05:01:45.776Z,38.43
2017-12-24T05:03:47.511Z,37.87
2017-12-24T05:05:48.511Z,38.57
2017-12-24T05:07:49.544Z,34.93
2017-12-24T05:09:50.534Z,36.13
2017-12-24T05:11:51.543Z,36.07
2017-12-24T05:13:52.583Z,36.10
2017-12-24T05:15:54.340Z,35.37
2017-12-24T05:17:56.086Z,36.27
2017-12-24T05:19:57.184Z,33.90
2017-12-24T05:21:58.190Z,34.80
2017-12-24T05:23:59.938Z,37.30
2017-12-24T05:26:00.922Z,36.47
2017-12-24T05:28:01.903Z,34.73
2017-12-24T05:30:02.929Z,35.10
2017-12-24T05:32:03.926Z,37.30
2017-12-24T05:34:04.936Z,36.20
2017-12-24T05:36:06.077Z,41.40
2017-12-24T05:38:07.063Z,34.73
2017-12-24T05:40:08.179Z,38.87
2017-12-24T05:42:09.232Z,35.60
2017-12-24T05:44:10.287Z,34.53
2017-12-24T05:46:11.316Z,40.00
2017-12-24T05:48:12.294Z,34.77
2017-12-24T05:50:13.293Z,36.00
2017-12-24T05:52:14.403Z,37.33
2017-12-24T05:54:15.390Z,35.67
2017-12-24T05:56:17.119Z,36.30
2017-12-24T05:58:18.178Z,35.93
2017-12-24T06:00:19.143Z,36.90
2017-12-24T06:02:20.270Z,35.30
2017-12-24T06:04:21.242Z,33.60
2017-12-24T06:06:22.956Z,35.60
2017-12-24T06:08:24.158Z,35.10
2017-12-24T06:10:25.916Z,35.70
2017-12-24T06:12:26.899Z,34.80
2017-12-24T06:14:27.924Z,36.27
2017-12-24T06:16:29.006Z,39.60
2017-12-24T06:18:29.972Z,32.67
2017-12-24T06:20:31.031Z,36.20
2017-12-24T06:22:32.014Z,36.47
2017-12-24T06:24:33.071Z,32.60
2017-12-24T06:26:34.036Z,35.17
2017-12-24T06:28:35.077Z,34.10
2017-12-24T06:30:36.071Z,32.80
2017-12-24T06:32:37.210Z,36.33
2017-12-24T06:34:38.192Z,30.57
2017-12-24T06:36:39.892Z,32.10
2017-12-24T06:38:40.891Z,32.90
2017-12-24T06:40:41.994Z,36.00
2017-12-24T06:42:42.971Z,28.60
2017-12-24T06:44:43.978Z,32.80
2017-12-24T06:46:45.080Z,32.67
2017-12-24T06:48:46.831Z,32.67
2017-12-24T06:50:48.580Z,32.27
2017-12-24T06:52:49.626Z,29.10
2017-12-24T06:54:50.663Z,32.77
2017-12-24T06:56:51.722Z,32.17
2017-12-24T06:58:52.735Z,33.77
2017-12-24T07:00:53.778Z,30.97
2017-12-24T07:02:54.813Z,34.17
2017-12-24T07:04:55.852Z,35.03
2017-12-24T07:06:56.858Z,34.20
2017-12-24T07:08:57.872Z,35.10
2017-12-24T07:10:59.349Z,35.57
2017-12-24T07:13:00.370Z,36.77
2017-12-24T07:15:01.412Z,37.20
2017-12-24T07:17:02.426Z,33.50
2017-12-24T07:19:03.390Z,37.57
2017-12-24T07:21:04.399Z,38.53
2017-12-24T07:23:05.395Z,36.07
2017-12-24T07:25:06.386Z,34.87
2017-12-24T07:27:07.384Z,34.97
2017-12-24T07:29:08.364Z,34.47
2017-12-24T07:31:09.372Z,33.53
2017-12-24T07:33:10.348Z,28.30
2017-12-24T07:35:11.343Z,35.30
2017-12-24T07:37:12.379Z,32.40
2017-12-24T07:39:13.390Z,32.20
2017-12-24T07:41:14.405Z,33.97
2017-12-24T07:43:15.367Z,33.80
2017-12-24T07:45:16.350Z,31.70
2017-12-24T07:47:17.411Z,29.40
2017-12-24T07:49:18.359Z,31.47
2017-12-24T07:51:19.406Z,29.07
2017-12-24T07:53:20.398Z,29.73
2017-12-24T07:55:21.369Z,28.87
2017-12-24T07:57:22.379Z,29.50
2017-12-24T07:59:23.346Z,29.60
2017-12-24T08:01:24.308Z,28.70
2017-12-24T08:03:25.456Z,28.90
2017-12-24T08:05:26.460Z,31.33
2017-12-24T08:07:27.424Z,28.73
2017-12-24T08:09:28.427Z,30.40
2017-12-24T08:11:29.403Z,28.63
2017-12-24T08:13:31.116Z,30.07
2017-12-24T08:15:32.146Z,28.60
2017-12-24T08:17:33.098Z,26.40
2017-12-24T08:19:34.062Z,30.33
2017-12-24T08:21:35.226Z,29.60
2017-12-24T08:23:36.254Z,28.63
2017-12-24T08:25:37.251Z,28.30
2017-12-24T08:27:39.067Z,26.23
2017-12-24T08:29:40.022Z,27.17
2017-12-24T08:31:40.984Z,29.43
2017-12-24T08:33:42.011Z,29.10
2017-12-24T08:35:42.976Z,31.13
2017-12-24T08:37:43.939Z,30.63
2017-12-24T08:39:45.664Z,29.10
2017-12-24T08:41:46.627Z,29.97
2017-12-24T08:43:47.783Z,30.30
2017-12-24T08:45:48.724Z,28.00
2017-12-24T08:47:49.750Z,29.30
2017-12-24T08:49:50.751Z,31.13
2017-12-24T08:51:51.715Z,29.10
2017-12-24T08:53:52.863Z,29.37
2017-12-24T08:55:53.870Z,28.93
2017-12-24T08:57:54.830Z,28.87
2017-12-24T08:59:55.818Z,27.57
2017-12-24T09:01:56.836Z,25.80
2017-12-24T09:03:57.832Z,28.23
2017-12-24T09:05:58.809Z,27.53
2017-12-24T09:07:59.778Z,29.37
2017-12-24T09:10:00.794Z,27.10
2017-12-24T09:12:02.085Z,28.57
2017-12-24T09:14:03.147Z,23.77
2017-12-24T09:16:04.115Z,25.60
2017-12-24T09:18:05.101Z,29.20
2017-12-24T09:20:06.078Z,27.80
2017-12-24T09:22:07.048Z,27.93
2017-12-24T09:24:08.062Z,26.93
2017-12-24T09:26:09.072Z,26.80
2017-12-24T09:28:10.025Z,27.20
2017-12-24T09:30:11.786Z,26.60
2017-12-24T09:32:12.775Z,22.40
2017-12-24T09:34:13.799Z,25.90
2017-12-24T09:36:14.821Z,25.30
2017-12-24T09:38:15.883Z,24.80
2017-12-24T09:40:16.899Z,27.63
2017-12-24T09:42:17.868Z,26.37
2017-12-24T09:44:19.660Z,26.50
2017-12-24T09:46:20.647Z,27.20
2017-12-24T09:48:21.626Z,25.43
2017-12-24T09:50:22.622Z,25.40
2017-12-24T09:52:23.660Z,24.03
2017-12-24T09:54:24.635Z,23.50
2017-12-24T09:56:25.632Z,24.93
2017-12-24T09:58:26.614Z,22.53
2017-12-24T10:00:27.624Z,23.37
2017-12-24T10:02:28.872Z,20.60
2017-12-24T10:04:30.598Z,22.90
2017-12-24T10:06:31.589Z,22.40
2017-12-24T10:08:32.546Z,22.33
2017-12-24T10:10:33.507Z,22.23
2017-12-24T10:12:34.572Z,22.17
2017-12-24T10:14:35.584Z,21.00
2017-12-24T10:16:36.577Z,22.17
2017-12-24T10:18:37.562Z,21.90
2017-12-24T10:20:39.288Z,20.47
2017-12-24T10:22:40.471Z,19.27
2017-12-24T10:24:42.219Z,19.60
2017-12-24T10:26:43.242Z,19.60
2017-12-24T10:28:44.220Z,20.27
2017-12-24T10:30:45.983Z,19.30
2017-12-24T10:32:47.074Z,18.70
2017-12-24T10:34:48.050Z,18.60
2017-12-24T10:36:48.987Z,19.03
2017-12-24T10:38:49.978Z,18.57
2017-12-24T10:40:51.699Z,17.13
2017-12-24T10:42:52.713Z,19.33
2017-12-24T10:44:53.670Z,18.43
2017-12-24T10:46:54.743Z,16.97
2017-12-24T10:48:55.779Z,18.07
2017-12-24T10:50:56.820Z,16.80
2017-12-24T10:52:57.874Z,16.83
2017-12-24T10:54:58.858Z,15.37
2017-12-24T10:56:59.934Z,15.00
2017-12-24T10:59:00.927Z,17.03
2017-12-24T11:01:01.949Z,16.40
2017-12-24T11:03:02.915Z,16.10
2017-12-24T11:05:03.920Z,15.30
2017-12-24T11:07:04.955Z,14.87
2017-12-24T11:09:05.966Z,14.20
2017-12-24T11:11:06.958Z,14.63
2017-12-24T11:13:08.683Z,14.47
2017-12-24T11:15:09.790Z,13.70
2017-12-24T11:17:10.815Z,14.30
2017-12-24T11:19:12.536Z,13.70
2017-12-24T11:21:13.507Z,12.03
2017-12-24T11:23:14.824Z,16.10
2017-12-24T11:25:16.652Z,15.40
2017-12-24T11:27:17.791Z,14.40
2017-12-24T11:29:19.525Z,14.00
2017-12-24T11:31:20.514Z,15.67
2017-12-24T11:33:22.342Z,15.93
2017-12-24T11:35:23.378Z,15.97
2017-12-24T11:37:24.372Z,13.70
2017-12-24T11:39:25.351Z,15.50
2017-12-24T11:41:26.403Z,14.60
2017-12-24T11:43:27.415Z,15.50
2017-12-24T11:45:28.468Z,15.37
2017-12-24T11:47:29.489Z,13.10
2017-12-24T11:49:30.457Z,14.20
2017-12-24T11:51:31.482Z,15.40
2017-12-24T11:53:32.471Z,14.13
2017-12-24T11:55:33.467Z,14.93
2017-12-24T11:57:34.477Z,13.40
2017-12-24T11:59:35.532Z,14.07
2017-12-24T12:01:36.630Z,14.80
2017-12-24T12:03:37.705Z,14.70
2017-12-24T12:05:39.152Z,13.83
2017-12-24T12:07:40.867Z,16.07
2017-12-24T12:09:41.968Z,15.73
2017-12-24T12:11:42.996Z,17.20
2017-12-24T12:13:43.965Z,17.13
2017-12-24T12:15:44.943Z,15.50
2017-12-24T12:17:46.002Z,15.10
2017-12-24T12:19:47.078Z,17.10
2017-12-24T12:21:48.070Z,16.17
2017-12-24T12:23:49.064Z,14.50
2017-12-24T12:25:50.267Z,14.20
2017-12-24T12:27:51.332Z,13.87
2017-12-24T12:29:52.428Z,14.20
2017-12-24T12:31:53.403Z,13.60
2017-12-24T12:33:54.410Z,13.70
2017-12-24T12:35:55.372Z,14.70
2017-12-24T12:37:56.367Z,13.67
2017-12-24T12:39:57.404Z,14.70
2017-12-24T12:41:58.487Z,13.80
2017-12-24T12:44:00.036Z,14.50
2017-12-24T12:46:01.024Z,13.20
2017-12-24T12:48:02.027Z,14.77
2017-12-24T12:50:02.975Z,14.53
2017-12-24T12:52:04.825Z,13.47
2017-12-24T12:54:05.805Z,14.30
2017-12-24T12:56:06.795Z,15.37
2017-12-24T12:58:07.754Z,13.03
2017-12-24T13:00:08.773Z,13.40
2017-12-24T13:02:09.728Z,14.63
2017-12-24T13:04:10.748Z,15.80
2017-12-24T13:06:11.762Z,16.23
2017-12-24T13:08:12.920Z,15.60
2017-12-24T13:10:13.967Z,13.80
2017-12-24T13:12:14.958Z,16.13
2017-12-24T13:14:15.901Z,13.80
2017-12-24T13:16:16.895Z,15.67
2017-12-24T13:18:17.827Z,13.73
2017-12-24T13:20:18.774Z,14.07
2017-12-24T13:22:19.751Z,15.40
2017-12-24T13:24:20.765Z,12.80
2017-12-24T13:26:21.738Z,15.73
2017-12-24T13:28:22.698Z,14.60
2017-12-24T13:30:24.523Z,15.40
2017-12-24T13:32:25.529Z,14.07
2017-12-24T13:34:27.247Z,14.53
2017-12-24T13:36:28.396Z,18.10
2017-12-24T13:38:29.351Z,15.97
2017-12-24T13:40:30.315Z,13.97
2017-12-24T13:42:31.271Z,13.90
2017-12-24T13:44:32.963Z,12.97
2017-12-24T13:46:33.952Z,11.40
2017-12-24T13:48:34.982Z,12.43
2017-12-24T13:50:35.951Z,12.13
2017-12-24T13:52:36.933Z,12.30
2017-12-24T13:54:38.750Z,12.70
2017-12-24T13:56:39.787Z,11.50
2017-12-24T13:58:40.753Z,12.17
2017-12-24T14:00:41.822Z,12.57
2017-12-24T14:02:42.787Z,11.10
2017-12-24T14:04:43.735Z,9.97
2017-12-24T14:06:44.695Z,11.10
2017-12-24T14:08:45.675Z,10.40
2017-12-24T14:10:46.651Z,10.67
2017-12-24T14:12:47.606Z,10.60
2017-12-24T14:14:48.697Z,9.90
2017-12-24T14:16:49.723Z,9.73
2017-12-24T14:18:50.706Z,10.33
2017-12-24T14:20:51.666Z,10.47
2017-12-24T14:22:52.638Z,8.90
2017-12-24T14:24:54.344Z,10.13
2017-12-24T14:26:55.333Z,9.23
2017-12-24T14:28:56.288Z,11.07
2017-12-24T14:30:57.329Z,10.00
2017-12-24T14:32:58.291Z,9.90
2017-12-24T14:34:59.299Z,9.00
2017-12-24T14:37:00.309Z,9.03
2017-12-24T14:39:01.267Z,9.33
2017-12-24T14:41:02.313Z,9.17
2017-12-24T14:43:03.376Z,9.30
2017-12-24T14:45:04.339Z,9.67
2017-12-24T14:47:05.326Z,7.53
2017-12-24T14:49:06.479Z,8.30
2017-12-24T14:51:07.461Z,8.43
2017-12-24T14:53:08.459Z,8.80
2017-12-24T14:55:10.204Z,9.60
2017-12-24T14:57:11.174Z,8.03
2017-12-24T14:59:12.871Z,8.10
2017-12-24T15:01:13.962Z,9.57
2017-12-24T15:03:15.029Z,9.53
2017-12-24T15:05:16.001Z,9.87
2017-12-24T15:07:17.534Z,8.03
2017-12-24T15:09:18.483Z,9.07
2017-12-24T15:11:19.588Z,9.43
2017-12-24T15:13:20.571Z,10.65
2017-12-24T15:15:22.276Z,9.77
2017-12-24T15:17:23.444Z,9.20
2017-12-24T15:19:24.452Z,9.90
2017-12-24T15:21:25.421Z,10.67
2017-12-24T15:23:26.372Z,10.47
2017-12-24T15:25:27.345Z,10.20
2017-12-24T15:27:28.426Z,10.00
2017-12-24T15:29:29.448Z,11.17
2017-12-24T15:31:30.460Z,10.57
2017-12-24T15:33:31.477Z,10.53
2017-12-24T15:35:32.439Z,10.00
2017-12-24T15:37:33.410Z,10.60
2017-12-24T15:39:34.463Z,11.70
2017-12-24T15:41:35.500Z,9.83
2017-12-24T15:43:36.503Z,12.95
2017-12-24T15:45:37.532Z,12.37
2017-12-24T15:47:38.544Z,11.80
2017-12-24T15:49:39.547Z,11.80
2017-12-24T15:51:45.433Z,13.77
2017-12-24T15:53:46.420Z,13.03
2017-12-24T15:55:47.379Z,11.60
2017-12-24T15:57:48.385Z,13.73
2017-12-24T15:59:49.448Z,14.67
2017-12-24T16:01:50.443Z,15.80
2017-12-24T16:03:51.395Z,14.43
2017-12-24T16:05:52.576Z,13.73
2017-12-24T16:07:53.604Z,14.07
2017-12-24T16:09:54.612Z,15.57
2017-12-24T16:11:55.596Z,17.47
2017-12-24T16:13:56.575Z,18.17
2017-12-24T16:15:57.597Z,18.70
2017-12-24T16:17:58.660Z,18.90
2017-12-24T16:20:00.166Z,18.73
2017-12-24T16:22:01.175Z,19.60
2017-12-24T16:24:02.213Z,17.40
2017-12-24T16:26:03.396Z,17.43
2017-12-24T16:28:04.412Z,16.27
2017-12-24T16:30:05.469Z,20.10
2017-12-24T16:32:06.472Z,19.37
2017-12-24T16:34:07.460Z,20.60
2017-12-24T16:36:08.456Z,20.87
2017-12-24T16:38:09.443Z,20.60
2017-12-24T16:40:11.495Z,19.77
2017-12-24T16:42:12.624Z,20.87
2017-12-24T16:44:13.615Z,19.63
2017-12-24T16:46:14.759Z,21.17
2017-12-24T16:48:15.748Z,22.23
2017-12-24T16:50:16.761Z,19.87
2017-12-24T16:52:17.877Z,19.07
2017-12-24T16:54:19.001Z,21.13
2017-12-24T16:56:20.010Z,21.20
2017-12-24T16:58:21.028Z,20.67
2017-12-24T17:00:22.151Z,21.10
2017-12-24T17:02:23.495Z,18.77
2017-12-24T17:04:24.578Z,20.60
2017-12-24T17:06:37.083Z,22.10
2017-12-24T17:08:38.336Z,21.00
2017-12-24T17:10:39.476Z,21.80
2017-12-24T17:12:40.474Z,20.20
2017-12-24T17:14:42.130Z,23.00
2017-12-24T17:16:43.101Z,22.27
2017-12-24T17:18:46.137Z,21.30
2017-12-24T17:20:47.119Z,21.37
2017-12-24T17:22:48.167Z,23.73
2017-12-24T17:24:49.135Z,23.90
2017-12-24T17:26:50.116Z,20.93
2017-12-24T17:28:51.108Z,20.43
2017-12-24T17:30:52.171Z,21.20
2017-12-24T17:32:53.173Z,22.70
2017-12-24T17:34:54.152Z,21.73
2017-12-24T17:36:55.159Z,23.47
2017-12-24T17:38:56.158Z,20.97
2017-12-24T17:40:57.137Z,20.20
2017-12-24T17:42:58.121Z,23.63
2017-12-24T17:44:59.199Z,23.10
2017-12-24T17:47:00.263Z,20.37
2017-12-24T17:49:01.271Z,20.83
2017-12-24T17:51:02.266Z,21.10
2017-12-24T17:53:03.250Z,22.43
2017-12-24T17:55:04.290Z,18.30
2017-12-24T17:57:05.282Z,21.83
2017-12-24T17:59:06.514Z,19.10
2017-12-24T18:01:07.499Z,21.40
2017-12-24T18:03:08.547Z,21.67
2017-12-24T18:05:10.294Z,18.87
2017-12-24T18:07:11.456Z,21.60
2017-12-24T18:09:12.443Z,21.17
2017-12-24T18:11:13.495Z,21.73
2017-12-24T18:13:14.491Z,20.07
2017-12-24T18:15:15.488Z,21.00
2017-12-24T18:17:16.494Z,22.60
2017-12-24T18:19:17.468Z,21.40
2017-12-24T18:21:18.537Z,20.43
2017-12-24T18:23:19.531Z,20.40
2017-12-24T18:25:20.567Z,24.37
2017-12-24T18:27:21.612Z,20.87
2017-12-24T18:29:22.670Z,21.97
2017-12-24T18:31:23.671Z,19.50
2017-12-24T18:33:24.686Z,18.87
2017-12-24T18:35:25.672Z,19.23
2017-12-24T18:37:26.654Z,20.87
2017-12-24T18:39:27.673Z,19.20
2017-12-24T18:41:28.658Z,20.60
2017-12-24T18:43:29.727Z,20.77
2017-12-24T18:45:31.568Z,22.23
2017-12-24T18:47:32.550Z,21.67
2017-12-24T18:49:33.564Z,23.57
2017-12-24T18:51:34.555Z,22.07
2017-12-24T18:53:35.547Z,24.37
2017-12-24T18:55:36.584Z,22.00
2017-12-24T18:57:37.693Z,22.53
2017-12-24T18:59:38.665Z,22.87
2017-12-24T19:01:39.672Z,22.17
2017-12-24T19:03:40.744Z,25.33
2017-12-24T19:05:49.139Z,22.37
2017-12-24T19:07:50.581Z,25.40
2017-12-24T19:09:51.595Z,21.57
2017-12-24T19:11:52.564Z,23.77
2017-12-24T19:13:53.659Z,22.03
2017-12-24T19:15:54.634Z,24.60
2017-12-24T19:17:55.849Z,24.03
2017-12-24T19:19:56.917Z,24.17
2017-12-24T19:21:57.862Z,28.30
2017-12-24T19:23:58.825Z,26.67
2017-12-24T19:25:59.932Z,25.90
2017-12-24T19:28:01.664Z,26.00
2017-12-24T19:30:02.643Z,21.77
2017-12-24T19:32:03.780Z,27.23
2017-12-24T19:34:04.751Z,27.23
2017-12-24T19:36:05.732Z,27.40
2017-12-24T19:38:06.886Z,27.23
2017-12-24T19:40:08.041Z,29.17
2017-12-24T19:42:09.093Z,28.53
2017-12-24T19:44:10.095Z,28.37
2017-12-24T19:46:11.087Z,28.40
2017-12-24T19:48:13.411Z,27.43
2017-12-24T19:50:14.621Z,31.00
2017-12-24T19:52:16.718Z,33.00
2017-12-24T19:54:17.743Z,31.40
2017-12-24T19:56:18.708Z,28.63
2017-12-24T19:58:19.702Z,31.90
2017-12-24T20:00:20.655Z,34.50
2017-12-24T20:02:21.673Z,31.47
2017-12-24T20:04:22.667Z,30.17
2017-12-24T20:06:23.648Z,29.60
2017-12-24T20:08:24.624Z,29.97
2017-12-24T20:10:25.676Z,25.77
2017-12-24T20:12:26.689Z,30.07
2017-12-24T20:14:27.667Z,26.60
2017-12-24T20:16:28.688Z,32.27
2017-12-24T20:18:29.695Z,26.80
2017-12-24T20:20:30.919Z,30.10
2017-12-24T20:22:31.906Z,31.10
2017-12-24T20:24:32.911Z,29.80
2017-12-24T20:26:33.904Z,31.93
2017-12-24T20:28:34.924Z,31.10
2017-12-24T20:30:36.196Z,31.03
2017-12-24T20:32:37.916Z,27.73
2017-12-24T20:34:39.101Z,28.00
2017-12-24T20:36:40.123Z,25.10
2017-12-24T20:38:41.135Z,28.70
2017-12-24T20:40:42.134Z,30.97
2017-12-24T20:42:43.109Z,28.00
2017-12-24T20:44:45.281Z,25.67
2017-12-24T20:46:46.387Z,26.80
2017-12-24T20:48:47.399Z,28.47
2017-12-24T20:50:48.378Z,27.50
2017-12-24T20:53:16.164Z,26.33
2017-12-24T20:55:17.268Z,26.70
2017-12-24T20:57:18.307Z,23.20
2017-12-24T20:59:19.395Z,24.47
2017-12-24T21:01:22.999Z,26.13
2017-12-24T21:03:24.042Z,24.20
2017-12-24T21:05:26.557Z,22.87
2017-12-24T21:07:27.867Z,24.00
2017-12-24T21:09:30.982Z,24.87
2017-12-24T21:11:32.195Z,21.97
2017-12-24T21:13:33.247Z,23.53
2017-12-24T21:15:34.339Z,25.27
2017-12-24T21:17:35.360Z,21.57
2017-12-24T21:21:43.530Z,22.67
2017-12-24T21:23:44.587Z,18.10
2017-12-24T21:25:45.680Z,20.03
2017-12-24T21:27:46.732Z,21.90
2017-12-24T21:29:48.854Z,17.60
2017-12-24T21:31:52.574Z,21.20
2017-12-24T21:33:59.011Z,19.67
2017-12-24T21:36:03.949Z,21.80
2017-12-24T21:38:05.099Z,20.57
2017-12-24T21:40:07.695Z,19.17
2017-12-24T21:42:08.704Z,17.00
2017-12-24T21:44:09.981Z,19.93
2017-12-24T21:46:11.026Z,18.57
2017-12-24T21:48:12.887Z,18.43
2017-12-24T21:50:24.548Z,18.37
2017-12-24T21:52:25.742Z,14.77
2017-12-24T21:54:26.801Z,16.83
2017-12-24T21:56:27.787Z,14.97
2017-12-24T21:58:28.804Z,16.00
2017-12-24T22:00:30.254Z,17.60
2017-12-24T22:02:31.288Z,15.00
2017-12-24T22:04:40.944Z,12.73
2017-12-24T22:06:42.141Z,9.90
2017-12-24T22:08:43.183Z,12.27
2017-12-24T22:10:44.228Z,11.67
2017-12-24T22:12:45.516Z,13.40
2017-12-24T22:14:46.946Z,13.00
2017-12-24T22:16:48.091Z,14.40
2017-12-24T22:18:49.246Z,14.30
2017-12-24T22:20:50.267Z,12.37
2017-12-24T22:22:51.270Z,14.90
2017-12-24T22:24:52.420Z,14.13
2017-12-24T22:26:53.426Z,15.33
2017-12-24T22:28:54.440Z,16.20
2017-12-24T22:30:55.481Z,14.53
2017-12-24T22:32:56.459Z,14.73
2017-12-24T22:34:58.240Z,15.53
2017-12-24T22:36:59.375Z,14.97
2017-12-24T22:39:00.393Z,16.50
2017-12-24T22:41:01.616Z,15.50
2017-12-24T22:43:02.657Z,15.60
2017-12-24T22:45:03.814Z,16.30
2017-12-24T22:47:05.240Z,14.80
2017-12-24T22:49:06.312Z,15.07
2017-12-24T22:51:07.320Z,14.10
2017-12-24T22:53:08.732Z,14.60
2017-12-24T22:55:11.268Z,14.67
2017-12-24T22:57:16.135Z,13.83
2017-12-24T22:59:17.207Z,14.50
2017-12-24T23:01:18.191Z,14.10
2017-12-24T23:03:27.633Z,14.00
2017-12-24T23:05:32.848Z,14.07
2017-12-24T23:09:41.168Z,11.77
2017-12-24T23:11:42.197Z,13.57
2017-12-24T23:13:43.862Z,13.07
2017-12-24T23:15:44.978Z,12.53
2017-12-24T23:17:49.934Z,12.80
2017-12-24T23:19:51.006Z,14.43
2017-12-24T23:21:52.202Z,13.40
2017-12-24T23:23:53.258Z,13.23
2017-12-24T23:25:54.440Z,12.50
2017-12-24T23:27:59.999Z,11.30
2017-12-24T23:30:01.070Z,8.53
2017-12-24T23:32:02.087Z,10.37
2017-12-24T23:34:03.135Z,12.00
2017-12-24T23:36:04.626Z,9.80
2017-12-24T23:38:12.932Z,9.50
2017-12-24T23:40:14.158Z,9.77
2017-12-24T23:42:15.180Z,10.30
2017-12-24T23:44:16.198Z,10.33
2017-12-24T23:46:17.182Z,11.00
2017-12-24T23:48:18.176Z,9.50
2017-12-24T23:50:19.304Z,9.17
2017-12-24T23:52:20.377Z,9.43
2017-12-24T23:56:27.372Z,9.67
2017-12-24T23:58:28.602Z,10.30
